createdAt,value
2022-12-13T00:04:29.845Z,-3.68
2022-12-13T00:09:54.172Z,-3.69
2022-12-13T00:15:19.767Z,-3.73
2022-12-13T00:21:00.977Z,-3.71
2022-12-13T00:26:42.735Z,-3.72
2022-12-13T00:32:06.665Z,-3.73
2022-12-13T00:37:30.437Z,-3.75
2022-12-13T00:42:54.391Z,-3.74
2022-12-13T00:48:35.716Z,-3.72
2022-12-13T00:54:16.771Z,-3.71
2022-12-13T00:59:58.208Z,-3.73
2022-12-13T01:06:13.803Z,-3.81
2022-12-13T01:11:41.287Z,-3.86
2022-12-13T01:17:05.187Z,-3.86
2022-12-13T01:22:29.117Z,-3.86
2022-12-13T01:27:52.647Z,-3.87
2022-12-13T01:33:34.094Z,-3.91
2022-12-13T01:39:18.558Z,-3.83
2022-12-13T01:45:03.951Z,-3.79
2022-12-13T01:50:46.361Z,-3.76
2022-12-13T01:56:10.999Z,-3.76
2022-12-13T02:01:34.580Z,-3.80
2022-12-13T02:06:58.313Z,-3.79
2022-12-13T02:12:39.939Z,-3.77
2022-12-13T02:18:23.657Z,-3.75
2022-12-13T02:24:08.950Z,-3.73
2022-12-13T02:30:08.974Z,-3.72
2022-12-13T02:36:02.103Z,-3.74
2022-12-13T02:41:44.341Z,-3.75
2022-12-13T02:47:22.191Z,-3.73
2022-12-13T02:52:46.904Z,-3.70
2022-12-13T02:58:13.831Z,-3.70
2022-12-13T03:03:43.634Z,-3.73
2022-12-13T03:09:36.568Z,-3.72
2022-12-13T03:15:18.620Z,-3.71
2022-12-13T03:21:01.513Z,-3.75
2022-12-13T03:26:42.788Z,-3.75
2022-12-13T03:32:07.587Z,-3.71
2022-12-13T03:37:31.309Z,-3.68
2022-12-13T03:42:54.927Z,-3.70
2022-12-13T03:48:36.559Z,-3.73
2022-12-13T03:54:18.992Z,-3.70
2022-12-13T04:00:00.132Z,-3.67
2022-12-13T04:05:24.233Z,-3.73
2022-12-13T04:11:26.158Z,-3.76
2022-12-13T04:17:19.197Z,-3.78
2022-12-13T04:23:01.330Z,-3.79
2022-12-13T04:28:54.701Z,-3.79
2022-12-13T04:34:18.735Z,-3.78
2022-12-13T04:40:00.880Z,-3.81
2022-12-13T04:45:24.962Z,-3.85
2022-12-13T04:51:06.260Z,-3.85
2022-12-13T04:56:48.175Z,-3.85
2022-12-13T05:02:12.486Z,-3.87
2022-12-13T05:07:35.940Z,-3.92
2022-12-13T05:13:06.865Z,-3.92
2022-12-13T05:18:30.709Z,-3.93
2022-12-13T05:24:11.980Z,-3.93
2022-12-13T05:30:02.807Z,-3.94
2022-12-13T05:35:45.775Z,-3.98
2022-12-13T05:41:09.515Z,-4.02
2022-12-13T05:46:38.324Z,-4.04
2022-12-13T05:52:04.796Z,-4.03
2022-12-13T05:57:28.817Z,-4.02
2022-12-13T06:02:53.465Z,-4.05
2022-12-13T06:08:24.897Z,-4.07
2022-12-13T06:14:06.954Z,-4.06
2022-12-13T06:20:22.982Z,-4.03
2022-12-13T06:26:06.673Z,-4.03
2022-12-13T06:31:47.994Z,-4.05
2022-12-13T06:37:13.322Z,-4.04
2022-12-13T06:42:37.237Z,-4.02
2022-12-13T06:48:00.904Z,-4.07
2022-12-13T06:53:42.586Z,-4.09
2022-12-13T06:59:23.629Z,-4.07
2022-12-13T07:05:04.392Z,-4.08
2022-12-13T07:10:47.809Z,-4.10
2022-12-13T07:16:16.501Z,-4.11
2022-12-13T07:21:42.372Z,-4.06
2022-12-13T07:27:06.556Z,-4.04
2022-12-13T07:32:30.566Z,-3.99
2022-12-13T07:38:11.932Z,-3.96
2022-12-13T07:43:55.002Z,-3.91
2022-12-13T07:49:20.396Z,-3.86
2022-12-13T07:55:02.746Z,-3.80
2022-12-13T08:00:26.966Z,-3.76
2022-12-13T08:06:09.243Z,-3.74
2022-12-13T08:11:50.582Z,-3.67
2022-12-13T08:17:14.791Z,-3.58
2022-12-13T08:22:39.227Z,-3.50
2022-12-13T08:28:03.209Z,-3.43
2022-12-13T08:33:47.216Z,-3.31
2022-12-13T08:39:28.653Z,-3.25
2022-12-13T08:45:10.344Z,-3.26
2022-12-13T08:50:51.596Z,-3.14
2022-12-13T08:56:15.937Z,-3.09
2022-12-13T09:01:39.487Z,-3.16
2022-12-13T09:07:03.921Z,-3.15
2022-12-13T09:12:45.346Z,-3.11
2022-12-13T09:18:36.051Z,-3.18
2022-12-13T09:24:24.088Z,-3.19
2022-12-13T09:30:08.391Z,-3.07
2022-12-13T09:35:49.611Z,-3.03
2022-12-13T09:41:52.782Z,-3.02
2022-12-13T09:47:35.196Z,-2.96
2022-12-13T09:53:21.854Z,-2.98
2022-12-13T09:59:04.230Z,-2.95
2022-12-13T10:04:30.064Z,-2.85
2022-12-13T10:10:11.503Z,-2.77
2022-12-13T10:15:53.647Z,-2.72
2022-12-13T10:21:20.662Z,-2.71
2022-12-13T10:26:44.668Z,-2.75
2022-12-13T10:32:13.923Z,-2.74
2022-12-13T10:37:38.734Z,-2.69
2022-12-13T10:43:24.385Z,-2.59
2022-12-13T10:49:05.694Z,-2.48
2022-12-13T10:54:38.458Z,-2.43
2022-12-13T11:00:40.565Z,-2.40
2022-12-13T11:06:22.653Z,-2.44
2022-12-13T11:12:06.411Z,-2.40
2022-12-13T11:17:31.664Z,-2.35
2022-12-13T11:23:12.781Z,-2.42
2022-12-13T11:28:57.014Z,-2.44
2022-12-13T11:34:24.339Z,-2.31
2022-12-13T11:39:50.401Z,-2.29
2022-12-13T11:45:37.260Z,-2.36
2022-12-13T11:51:00.941Z,-2.36
2022-12-13T11:56:44.926Z,-2.34
2022-12-13T12:02:35.198Z,-2.34
2022-12-13T12:08:37.178Z,-2.41
2022-12-13T12:14:25.582Z,-2.39
2022-12-13T12:20:07.678Z,-2.40
2022-12-13T12:25:34.753Z,-2.38
2022-12-13T12:31:34.400Z,-2.28
2022-12-13T12:37:31.997Z,-2.30
2022-12-13T12:43:39.660Z,-2.34
2022-12-13T12:49:40.698Z,-2.30
2022-12-13T12:55:22.677Z,-2.22
2022-12-13T13:01:22.462Z,-2.23
2022-12-13T13:07:22.509Z,-2.34
2022-12-13T13:13:12.634Z,-2.46
2022-12-13T13:19:25.463Z,-2.50
2022-12-13T13:25:07.050Z,-2.55
2022-12-13T13:30:31.068Z,-2.61
2022-12-13T13:36:14.902Z,-2.76
2022-12-13T13:42:17.176Z,-2.86
2022-12-13T13:48:01.516Z,-2.89
2022-12-13T13:53:44.622Z,-2.99
2022-12-13T13:59:24.382Z,-3.07
2022-12-13T14:04:54.938Z,-3.10
2022-12-13T14:10:39.149Z,-3.14
2022-12-13T14:16:12.208Z,-3.14
2022-12-13T14:22:02.990Z,-3.19
2022-12-13T14:28:02.907Z,-3.26
2022-12-13T14:33:49.171Z,-3.31
2022-12-13T14:39:31.475Z,-3.32
2022-12-13T14:45:17.732Z,-3.38
2022-12-13T14:50:59.669Z,-3.34
2022-12-13T14:56:28.615Z,-3.33
2022-12-13T15:01:57.032Z,-3.35
2022-12-13T15:07:24.404Z,-3.37
2022-12-13T15:12:49.078Z,-3.40
2022-12-13T15:18:30.286Z,-3.48
2022-12-13T15:24:30.655Z,-3.56
2022-12-13T15:30:15.536Z,-3.62
2022-12-13T15:35:39.156Z,-3.66
2022-12-13T15:41:21.015Z,-3.66
2022-12-13T15:47:09.855Z,-3.55
2022-12-13T15:52:34.807Z,-3.43
2022-12-13T15:58:35.592Z,-3.28
2022-12-13T16:04:22.193Z,-3.11
2022-12-13T16:10:03.394Z,-3.01
2022-12-13T16:15:29.993Z,-2.95
2022-12-13T16:20:56.826Z,-3.02
2022-12-13T16:26:25.861Z,-3.12
2022-12-13T16:31:50.279Z,-3.17
2022-12-13T16:37:31.469Z,-3.23
2022-12-13T16:43:19.720Z,-3.29
2022-12-13T16:49:01.575Z,-3.37
2022-12-13T16:54:26.177Z,-3.41
2022-12-13T16:59:50.101Z,-3.39
2022-12-13T17:05:14.179Z,-3.41
2022-12-13T17:10:58.198Z,-3.39
2022-12-13T17:16:39.711Z,-3.47
2022-12-13T17:22:21.658Z,-3.48
2022-12-13T17:27:46.735Z,-3.44
2022-12-13T17:33:12.431Z,-3.45
2022-12-13T17:38:36.570Z,-3.47
2022-12-13T17:44:20.993Z,-3.58
2022-12-13T17:49:45.022Z,-3.64
2022-12-13T17:55:13.517Z,-3.67
2022-12-13T18:01:00.113Z,-3.64
2022-12-13T18:06:41.908Z,-3.66
2022-12-13T18:12:23.337Z,-3.65
2022-12-13T18:18:12.573Z,-3.65
2022-12-13T18:23:37.362Z,-3.62
2022-12-13T18:29:19.802Z,-3.60
2022-12-13T18:35:01.733Z,-3.56
2022-12-13T18:40:25.853Z,-3.54
2022-12-13T18:45:49.470Z,-3.55
2022-12-13T18:51:14.745Z,-3.49
2022-12-13T18:56:55.819Z,-3.39
2022-12-13T19:02:38.893Z,-3.27
2022-12-13T19:08:26.542Z,-3.23
2022-12-13T19:14:08.146Z,-3.14
2022-12-13T19:19:32.133Z,-3.11
2022-12-13T19:25:14.147Z,-3.21
2022-12-13T19:30:37.793Z,-3.36
2022-12-13T19:36:19.450Z,-3.47
2022-12-13T19:41:43.982Z,-3.59
2022-12-13T19:47:08.078Z,-3.72
2022-12-13T19:52:32.579Z,-3.86
2022-12-13T19:57:56.256Z,-4.01
2022-12-13T20:03:38.363Z,-4.19
2022-12-13T20:09:20.344Z,-4.43
2022-12-13T20:14:44.457Z,-4.79
2022-12-13T20:20:36.126Z,-5.12
2022-12-13T20:26:28.507Z,-5.46
2022-12-13T20:32:10.304Z,-5.56
2022-12-13T20:37:33.583Z,-5.54
2022-12-13T20:43:15.386Z,-5.52
2022-12-13T20:48:41.140Z,-5.57
2022-12-13T20:54:22.499Z,-5.74
2022-12-13T21:00:04.539Z,-5.80
2022-12-13T21:05:28.968Z,-5.72
2022-12-13T21:10:53.499Z,-5.67
2022-12-13T21:16:17.774Z,-5.62
2022-12-13T21:22:00.391Z,-5.56
2022-12-13T21:27:41.566Z,-5.58
2022-12-13T21:33:23.307Z,-5.68
2022-12-13T21:39:24.520Z,-5.78
2022-12-13T21:45:06.036Z,-5.91
2022-12-13T21:50:29.971Z,-5.97
2022-12-13T21:56:14.667Z,-6.06
2022-12-13T22:01:55.931Z,-6.17
2022-12-13T22:07:38.489Z,-6.28
2022-12-13T22:13:19.666Z,-6.26
2022-12-13T22:18:43.583Z,-6.30
2022-12-13T22:24:25.744Z,-6.43
2022-12-13T22:30:08.348Z,-6.62
2022-12-13T22:35:32.223Z,-6.82
2022-12-13T22:40:56.080Z,-6.96
2022-12-13T22:46:21.427Z,-7.08
2022-12-13T22:52:02.881Z,-7.18
2022-12-13T22:57:45.117Z,-7.20
2022-12-13T23:03:30.366Z,-7.18
2022-12-13T23:09:15.674Z,-7.24
2022-12-13T23:14:39.716Z,-7.32
2022-12-13T23:20:21.244Z,-7.24
2022-12-13T23:25:44.651Z,-7.28
2022-12-13T23:31:31.576Z,-7.52
2022-12-13T23:37:13.945Z,-7.84
2022-12-13T23:42:37.732Z,-8.01
2022-12-13T23:48:23.724Z,-7.97
2022-12-13T23:54:07.897Z,-7.87
2022-12-13T23:59:31.485Z,-7.80
